Time;durP1;ratioP1;P1;durP2;ratioP2;P2;SDS_P1;SDS_P2;PMS_P1;PMS_P2;Temp;Humidity;BMP_temperature;BMP_pressure;BME280_temperature;BME280_humidity;BME280_pressure;Samples;Min_cycle;Max_cycle;Signal;HPM_P1;HPM_P2
2023/04/09 00:56:23;;;;;;;6.78;1.25;;;21.10;54.50;;;;;;5146214;22;20467;-70
2023/04/09 00:58:45;;;;;;;;;;;21.10;53.90;;;;;;5153847;22;20016;-70
2023/04/09 01:01:07;;;;;;;3.25;1.10;;;21.10;54.00;;;;;;5152283;22;20229;-70
2023/04/09 01:03:30;;;;;;;6.35;1.58;;;21.20;53.10;;;;;;5144266;23;20095;-69
2023/04/09 01:06:10;;;;;;;7.22;1.42;;;21.10;53.10;;;;;;5152504;23;20630;-73
2023/04/09 01:09:11;;;;;;;5.75;1.00;;;21.10;52.60;;;;;;5152439;23;20043;-70
2023/04/09 01:12:01;;;;;;;4.47;1.08;;;21.10;52.70;;;;;;5081836;23;20016;-71
2023/04/09 01:14:26;;;;;;;5.15;1.17;;;21.10;52.70;;;;;;5144452;23;20031;-77
2023/04/09 01:16:57;;;;;;;10.77;1.90;;;21.10;53.20;;;;;;5152787;23;20012;-75
2023/04/09 01:20:03;;;;;;;7.00;1.35;;;21.10;53.20;;;;;;5152431;23;20012;-74
2023/04/09 01:22:44;;;;;;;7.72;1.77;;;21.20;53.30;;;;;;5153214;23;20024;-78
2023/04/09 01:25:57;;;;;;;;;;;;;;;;;;;;;
2023/04/09 01:28:45;;;;;;;7.93;2.20;;;21.20;53.80;;;;;;5146761;23;20012;-71
2023/04/09 01:31:19;;;;;;;7.25;1.35;;;21.30;53.80;;;;;;5136271;23;20131;-70
2023/04/09 01:33:42;;;;;;;5.97;1.83;;;21.30;53.30;;;;;;5138088;23;20094;-69
2023/04/09 01:36:12;;;;;;;3.97;1.37;;;21.30;53.00;;;;;;5145200;23;20460;-70
2023/04/09 01:38:49;;;;;;;6.00;1.52;;;21.40;53.40;;;;;;5146647;23;20020;-71
2023/04/09 01:41:18;;;;;;;7.60;1.17;;;21.40;53.30;;;;;;5147289;23;20042;-71
2023/04/09 01:46:41;;;;;;;;;;;21.50;53.40;;;;;;5140156;23;20012;-72
2023/04/09 01:49:05;;;;;;;3.70;0.98;;;21.50;53.40;;;;;;5146868;23;19990;-72
2023/04/09 01:51:28;;;;;;;3.58;1.08;;;21.50;53.40;;;;;;5147383;23;20348;-71
2023/04/09 01:53:53;;;;;;;3.72;1.00;;;21.60;53.30;;;;;;5147124;23;20722;-71
2023/04/09 01:56:15;;;;;;;2.55;0.75;;;21.60;53.20;;;;;;5147884;22;20365;-70
2023/04/09 01:58:38;;;;;;;39.42;4.65;;;21.60;53.20;;;;;;5145665;23;20642;-71
2023/04/09 02:01:15;;;;;;;50.38;5.20;;;21.60;53.10;;;;;;5139193;23;20023;-76
2023/04/09 02:03:55;;;;;;;35.58;3.38;;;21.60;53.40;;;;;;5147630;23;20036;-73
2023/04/09 02:06:40;;;;;;;31.88;3.38;;;21.60;53.90;;;;;;5147499;23;20016;-75
2023/04/09 02:09:06;;;;;;;17.75;2.30;;;21.70;54.40;;;;;;5146721;23;20079;-73
2023/04/09 02:11:33;;;;;;;10.38;2.13;;;21.70;54.40;;;;;;5144963;23;20256;-73
2023/04/09 02:13:57;;;;;;;10.32;1.60;;;21.80;54.50;;;;;;5146516;23;20032;-73
2023/04/09 02:16:25;;;;;;;13.35;1.75;;;21.80;54.30;;;;;;5145372;23;20528;-70
2023/04/09 02:19:00;;;;;;;42.03;2.20;;;21.80;54.30;;;;;;5145365;23;20016;-76
2023/04/09 02:21:23;;;;;;;7.03;1.08;;;21.90;54.50;;;;;;5145767;23;20019;-68
2023/04/09 02:23:45;;;;;;;4.68;1.10;;;21.90;54.80;;;;;;5145737;23;20016;-66
2023/04/09 02:26:08;;;;;;;8.02;1.40;;;21.80;54.60;;;;;;5144028;23;20012;-69
2023/04/09 02:28:30;;;;;;;4.13;1.20;;;21.90;55.50;;;;;;5145660;23;20380;-66
2023/04/09 02:30:52;;;;;;;4.50;0.70;;;21.90;55.10;;;;;;5144201;23;20056;-69
2023/04/09 02:33:18;;;;;;;6.13;1.20;;;21.90;55.00;;;;;;5137288;23;20012;-67
2023/04/09 02:35:40;;;;;;;7.50;1.10;;;21.90;54.90;;;;;;5145650;23;20024;-67
2023/04/09 02:38:12;;;;;;;7.40;1.10;;;22.00;54.90;;;;;;5144785;23;20095;-68
2023/04/09 02:40:34;;;;;;;1.48;0.57;;;22.00;54.90;;;;;;5147234;23;20032;-75
2023/04/09 02:42:57;;;;;;;8.07;1.20;;;22.00;54.80;;;;;;5146595;23;20013;-66
2023/04/09 02:45:20;;;;;;;4.10;1.05;;;22.00;54.80;;;;;;5146032;23;20103;-66
2023/04/09 02:47:42;;;;;;;1.80;1.30;;;21.90;54.70;;;;;;5148084;23;20028;-80
2023/04/09 02:50:05;;;;;;;2.15;0.63;;;21.90;54.70;;;;;;5146231;23;20059;-77
2023/04/09 02:52:28;;;;;;;1.50;0.63;;;21.90;54.30;;;;;;5147822;23;20012;-79
2023/04/09 02:55:03;;;;;;;2.70;0.57;;;21.90;54.20;;;;;;5149283;23;20063;-78
2023/04/09 02:57:25;;;;;;;1.65;1.00;;;21.90;54.20;;;;;;5147812;23;20038;-78
2023/04/09 02:59:47;;;;;;;0.50;0.50;;;21.90;53.90;;;;;;5146271;23;20017;-77
2023/04/09 03:02:10;;;;;;;0.50;0.50;;;21.90;54.50;;;;;;5147049;23;20005;-79
2023/04/09 03:04:32;;;;;;;3.83;0.80;;;21.90;54.50;;;;;;5146869;23;20074;-85
2023/04/09 03:06:55;;;;;;;0.52;0.40;;;21.90;54.40;;;;;;5148608;23;20016;-79
2023/04/09 03:09:17;;;;;;;1.55;0.68;;;21.90;54.60;;;;;;5148481;23;20016;-80
2023/04/09 03:11:40;;;;;;;0.60;0.40;;;21.90;54.70;;;;;;5144445;23;20021;-77
2023/04/09 03:14:02;;;;;;;6.82;1.05;;;21.90;54.70;;;;;;5148071;23;20009;-75
2023/04/09 03:16:25;;;;;;;6.03;1.35;;;21.90;54.90;;;;;;5139636;23;20409;-67
2023/04/09 03:18:47;;;;;;;2.40;0.55;;;22.00;55.40;;;;;;5146408;23;20016;-69
2023/04/09 03:21:10;;;;;;;1.00;0.50;;;22.00;55.40;;;;;;5146484;23;20027;-71
2023/04/09 03:23:33;;;;;;;10.10;1.30;;;22.10;55.70;;;;;;5146060;23;20012;-73
2023/04/09 03:26:04;;;;;;;7.68;0.82;;;22.10;56.00;;;;;;5146334;23;20048;-66
2023/04/09 03:28:26;;;;;;;4.75;0.60;;;22.20;55.60;;;;;;5146169;23;20016;-66
2023/04/09 03:30:49;;;;;;;2.78;0.90;;;22.20;55.40;;;;;;5147172;23;20040;-67
2023/04/09 03:33:11;;;;;;;1.83;0.50;;;22.30;55.50;;;;;;5146128;23;20027;-66
2023/04/09 03:35:33;;;;;;;3.10;0.98;;;22.30;55.30;;;;;;5143129;23;20462;-67
2023/04/09 03:37:56;;;;;;;0.60;0.40;;;22.40;55.20;;;;;;5146424;23;20017;-70
2023/04/09 03:40:18;;;;;;;1.27;0.47;;;22.40;55.20;;;;;;5147326;23;20012;-68
2023/04/09 03:42:42;;;;;;;0.30;0.30;;;22.40;55.20;;;;;;5145319;23;20036;-67
2023/04/09 03:45:05;;;;;;;0.50;0.40;;;22.40;55.70;;;;;;5146805;23;20071;-84
2023/04/09 03:47:28;;;;;;;0.57;0.40;;;22.50;54.90;;;;;;5146700;23;20012;-77
2023/04/09 03:49:50;;;;;;;1.10;0.50;;;22.50;54.80;;;;;;5147167;23;20039;-85
2023/04/09 03:52:13;;;;;;;0.30;0.30;;;22.60;54.60;;;;;;5144881;23;20115;-78
2023/04/09 03:54:35;;;;;;;0.77;0.50;;;22.60;54.70;;;;;;5137530;23;20028;-75
2023/04/09 03:56:57;;;;;;;1.92;0.40;;;22.60;54.50;;;;;;5136484;23;20050;-80
2023/04/09 03:59:20;;;;;;;0.30;0.30;;;22.70;54.60;;;;;;5146257;23;20342;-77
2023/04/09 04:01:42;;;;;;;1.85;0.38;;;22.70;54.50;;;;;;5146719;23;20016;-74
2023/04/09 04:04:05;;;;;;;1.52;0.40;;;22.70;54.40;;;;;;5145012;23;20020;-82
2023/04/09 04:06:27;;;;;;;0.40;0.30;;;22.80;54.10;;;;;;5137973;23;20040;-77
2023/04/09 04:08:50;;;;;;;0.50;0.30;;;22.80;52.90;;;;;;5144935;23;20063;-84
2023/04/09 04:11:12;;;;;;;0.40;0.40;;;22.80;52.40;;;;;;5146617;23;20043;-78
2023/04/09 04:13:35;;;;;;;0.95;0.57;;;22.80;51.80;;;;;;5135637;23;20028;-79
2023/04/09 04:15:57;;;;;;;5.07;1.63;;;22.80;52.70;;;;;;5146481;23;20031;-75
2023/04/09 04:18:20;;;;;;;9.00;1.10;;;22.90;52.20;;;;;;5147544;23;20361;-73
2023/04/09 04:20:42;;;;;;;3.25;0.85;;;23.00;52.50;;;;;;5140625;23;20023;-74
2023/04/09 04:23:05;;;;;;;2.40;0.60;;;23.10;51.90;;;;;;5135080;23;20020;-73
2023/04/09 04:25:28;;;;;;;1.30;0.80;;;23.20;51.70;;;;;;5135182;23;20091;-71
2023/04/09 04:27:50;;;;;;;2.15;0.70;;;23.30;51.50;;;;;;5133928;23;20048;-68
2023/04/09 04:30:12;;;;;;;3.42;0.47;;;23.30;50.90;;;;;;5144570;23;20021;-68
2023/04/09 04:32:35;;;;;;;3.45;0.63;;;23.50;50.70;;;;;;5145312;23;20021;-68
2023/04/09 04:34:58;;;;;;;1.85;0.63;;;23.50;50.50;;;;;;5143704;23;20024;-68
2023/04/09 04:37:21;;;;;;;1.08;0.82;;;23.60;50.20;;;;;;5142848;23;20090;-68
2023/04/09 04:39:43;;;;;;;1.80;0.60;;;23.70;50.00;;;;;;5144375;23;20078;-67
2023/04/09 04:42:05;;;;;;;1.55;0.88;;;23.70;50.40;;;;;;5135550;23;20017;-75
2023/04/09 04:44:28;;;;;;;2.58;0.80;;;23.80;49.60;;;;;;5144178;23;20025;-73
2023/04/09 04:46:50;;;;;;;2.63;1.30;;;23.80;49.40;;;;;;5145316;23;20087;-69
2023/04/09 04:49:13;;;;;;;2.60;1.45;;;23.90;49.20;;;;;;5142624;23;20393;-69
2023/04/09 04:51:35;;;;;;;2.03;0.60;;;24.00;49.20;;;;;;5144822;23;20016;-72
2023/04/09 04:53:57;;;;;;;2.25;1.08;;;24.00;49.50;;;;;;5136775;23;20017;-74
2023/04/09 04:56:20;;;;;;;1.63;0.90;;;24.00;49.70;;;;;;5132567;23;20562;-70
2023/04/09 04:58:43;;;;;;;1.65;1.00;;;24.00;50.00;;;;;;5143563;23;20012;-70
2023/04/09 05:01:05;;;;;;;3.33;0.90;;;24.00;50.10;;;;;;5136586;23;20127;-70
2023/04/09 05:03:27;;;;;;;3.10;1.00;;;24.00;49.50;;;;;;5138037;23;20531;-71
2023/04/09 05:05:50;;;;;;;1.83;1.00;;;24.00;48.50;;;;;;5146996;23;20118;-69
2023/04/09 05:08:12;;;;;;;2.05;0.93;;;24.00;48.80;;;;;;5147338;23;20032;-72
2023/04/09 05:10:35;;;;;;;2.75;1.30;;;24.00;48.90;;;;;;5146770;23;20062;-70
2023/04/09 05:12:57;;;;;;;2.50;1.23;;;24.10;49.10;;;;;;5146161;23;20024;-70
2023/04/09 05:15:20;;;;;;;2.00;1.00;;;24.10;49.00;;;;;;5147862;23;20055;-71
2023/04/09 05:17:45;;;;;;;2.58;0.80;;;24.10;49.20;;;;;;5147256;23;20023;-70
2023/04/09 05:20:08;;;;;;;2.05;0.85;;;24.20;49.30;;;;;;5147918;23;20008;-71
2023/04/09 05:22:31;;;;;;;1.67;0.60;;;24.20;49.30;;;;;;5146085;23;20021;-71
2023/04/09 05:24:53;;;;;;;1.17;0.70;;;24.20;49.30;;;;;;5146866;22;20107;-70
2023/04/09 05:27:18;;;;;;;4.72;0.90;;;24.20;49.60;;;;;;5146473;23;20017;-71
2023/04/09 05:29:40;;;;;;;15.23;1.45;;;24.30;50.10;;;;;;5147118;23;20452;-71
2023/04/09 05:32:03;;;;;;;7.15;1.30;;;24.30;49.50;;;;;;5145672;23;20023;-71
2023/04/09 05:34:25;;;;;;;4.82;1.00;;;24.30;49.50;;;;;;5139031;23;20024;-71
2023/04/09 05:36:48;;;;;;;6.50;1.27;;;24.30;49.40;;;;;;5147535;22;20518;-70
2023/04/09 05:39:10;;;;;;;5.03;1.23;;;24.30;49.50;;;;;;5136689;23;20013;-70
2023/04/09 05:41:33;;;;;;;5.43;1.00;;;24.30;49.30;;;;;;5146575;23;20017;-74
2023/04/09 05:43:55;;;;;;;5.72;0.93;;;24.30;49.50;;;;;;5146161;23;20761;-71
2023/04/09 05:46:17;;;;;;;2.85;0.90;;;24.30;49.60;;;;;;5138035;23;20467;-72
2023/04/09 05:48:40;;;;;;;2.38;0.90;;;24.30;49.70;;;;;;5145924;23;20020;-74
2023/04/09 05:51:03;;;;;;;2.60;0.95;;;24.30;49.60;;;;;;5146246;23;20063;-69
2023/04/09 05:53:25;;;;;;;7.97;1.48;;;24.20;49.70;;;;;;5145340;23;20023;-70
2023/04/09 05:55:48;;;;;;;6.28;1.42;;;24.20;49.60;;;;;;5137330;23;20028;-67
2023/04/09 05:58:10;;;;;;;6.65;1.30;;;24.20;49.40;;;;;;5145800;23;20012;-66
2023/04/09 06:00:33;;;;;;;25.08;1.73;;;24.20;49.60;;;;;;5143410;23;20349;-66
2023/04/09 06:02:55;;;;;;;4.53;1.55;;;24.20;49.50;;;;;;5145295;23;20088;-66
2023/04/09 06:05:18;;;;;;;3.00;1.30;;;24.10;49.50;;;;;;5147103;22;20025;-66
2023/04/09 06:07:40;;;;;;;7.03;2.20;;;24.10;49.60;;;;;;5146424;23;20016;-69
2023/04/09 06:10:03;;;;;;;6.68;2.03;;;24.10;49.40;;;;;;5137321;23;20016;-68
2023/04/09 06:12:25;;;;;;;7.05;1.40;;;24.10;49.40;;;;;;5136347;23;20052;-69
2023/04/09 06:14:51;;;;;;;6.80;1.27;;;24.10;49.40;;;;;;5145211;23;20020;-71
2023/04/09 06:17:14;;;;;;;7.57;1.40;;;24.00;49.80;;;;;;5137270;23;20023;-71
2023/04/09 06:19:36;;;;;;;4.10;1.25;;;24.00;49.80;;;;;;5145127;23;20026;-70
2023/04/09 06:22:05;;;;;;;4.90;1.63;;;24.00;50.00;;;;;;5136872;23;20012;-73
2023/04/09 06:24:27;;;;;;;5.40;1.00;;;24.00;49.90;;;;;;5145415;23;20035;-69
2023/04/09 06:26:50;;;;;;;2.42;1.10;;;24.00;49.90;;;;;;5144374;23;20048;-71
2023/04/09 06:29:12;;;;;;;7.53;1.40;;;24.00;50.00;;;;;;5145686;23;20021;-67
2023/04/09 06:31:35;;;;;;;7.25;2.10;;;24.00;49.70;;;;;;5135258;23;20025;-68
2023/04/09 06:33:57;;;;;;;10.55;2.00;;;24.00;48.70;;;;;;5144996;23;20456;-67
2023/04/09 06:36:20;;;;;;;5.18;1.48;;;23.90;48.80;;;;;;5134692;23;20027;-69
2023/04/09 06:38:42;;;;;;;9.57;2.50;;;23.90;48.90;;;;;;5143747;23;20040;-66
2023/04/09 06:41:07;;;;;;;7.43;2.13;;;23.90;49.00;;;;;;5143971;23;20659;-66
2023/04/09 06:43:29;;;;;;;11.98;1.65;;;23.90;49.20;;;;;;5145918;23;20035;-67
2023/04/09 06:45:52;;;;;;;6.30;1.23;;;23.90;49.50;;;;;;5146611;23;20031;-71
2023/04/09 06:48:14;;;;;;;5.90;1.25;;;23.90;50.10;;;;;;5144614;23;20380;-66
2023/04/09 06:50:36;;;;;;;4.38;1.20;;;23.80;49.70;;;;;;5146358;23;20036;-67
2023/04/09 06:52:59;;;;;;;8.43;1.70;;;23.90;49.60;;;;;;5147436;23;20361;-67
2023/04/09 06:56:22;;;;;;;;;;;;;;;;;;;;;
2023/04/09 06:59:15;;;;;;;4.60;1.15;;;23.80;49.40;;;;;;5138663;23;20020;-72
2023/04/09 07:01:38;;;;;;;4.00;1.45;;;23.80;49.60;;;;;;5146120;23;20112;-74
2023/04/09 07:04:00;;;;;;;3.05;0.80;;;23.80;49.60;;;;;;5145265;23;20071;-75
2023/04/09 07:06:22;;;;;;;2.95;0.90;;;23.80;49.60;;;;;;5147570;23;20025;-74
2023/04/09 07:08:46;;;;;;;1.60;0.93;;;23.80;49.60;;;;;;5146634;23;20457;-75
2023/04/09 07:11:08;;;;;;;3.67;1.10;;;23.80;49.60;;;;;;5145298;23;20129;-79
2023/04/09 07:13:31;;;;;;;3.00;1.40;;;23.80;49.00;;;;;;5147537;23;20020;-79
2023/04/09 07:15:54;;;;;;;3.05;1.20;;;23.70;48.50;;;;;;5140283;23;20047;-80
2023/04/09 07:18:16;;;;;;;3.55;1.35;;;23.70;48.10;;;;;;5145111;23;20019;-77
2023/04/09 07:20:39;;;;;;;2.83;1.00;;;23.70;47.50;;;;;;5148222;23;20675;-76
2023/04/09 07:23:01;;;;;;;1.98;0.80;;;23.60;47.90;;;;;;5136142;23;20023;-77
2023/04/09 07:25:23;;;;;;;2.28;0.80;;;23.60;47.80;;;;;;5146195;23;20028;-78
2023/04/09 07:27:46;;;;;;;2.08;1.08;;;23.50;47.80;;;;;;5145077;23;20028;-79
2023/04/09 07:30:09;;;;;;;3.03;1.00;;;23.50;47.90;;;;;;5146665;23;20039;-83
2023/04/09 07:32:32;;;;;;;2.45;1.02;;;23.40;47.80;;;;;;5144890;23;20088;-76
2023/04/09 07:34:56;;;;;;;5.25;1.23;;;23.30;47.90;;;;;;5145153;23;20123;-75
2023/04/09 07:37:17;;;;;;;;;;;23.30;47.70;;;;;;5147712;23;20044;-73
2023/04/09 07:39:43;;;;;;;4.00;1.80;;;23.30;48.20;;;;;;5136991;23;19935;-76
2023/04/09 07:42:06;;;;;;;4.55;1.25;;;23.20;48.70;;;;;;5145472;23;20019;-74
2023/04/09 07:44:28;;;;;;;2.00;1.02;;;23.20;49.10;;;;;;5146333;23;20154;-74
2023/04/09 07:46:50;;;;;;;3.85;1.00;;;23.30;49.40;;;;;;5145908;23;20355;-74
2023/04/09 07:49:13;;;;;;;1.95;1.20;;;23.30;49.70;;;;;;5146409;23;20047;-77
2023/04/09 07:51:35;;;;;;;5.05;1.08;;;23.30;49.80;;;;;;5146899;23;20051;-75
2023/04/09 07:53:58;;;;;;;1.95;0.85;;;23.30;49.90;;;;;;5146807;23;20477;-77
2023/04/09 07:56:21;;;;;;;3.63;1.30;;;23.30;49.90;;;;;;5145857;23;20094;-77
2023/04/09 07:58:43;;;;;;;2.60;0.82;;;23.30;50.00;;;;;;5137103;23;20595;-76
2023/04/09 08:01:06;;;;;;;4.07;1.35;;;23.40;50.00;;;;;;5145966;23;20017;-79
2023/04/09 08:03:31;;;;;;;1.13;0.50;;;23.40;50.00;;;;;;5144650;23;20458;-79
2023/04/09 08:05:54;;;;;;;4.65;0.95;;;23.40;50.10;;;;;;5144735;23;20079;-80
2023/04/09 08:08:22;;;;;;;3.85;0.93;;;23.40;50.10;;;;;;5147204;23;20016;-85
2023/04/09 08:10:44;;;;;;;0.68;0.30;;;23.40;50.00;;;;;;5138827;23;20392;-78
2023/04/09 08:13:07;;;;;;;0.73;0.50;;;23.40;50.10;;;;;;5138549;23;20533;-79
2023/04/09 10:29:53;;;;;;;2.22;0.80;;;23.40;49.10;;;;;;5213778;22;20037;-75
2023/04/09 10:32:26;;;;;;;3.25;0.88;;;23.40;49.30;;;;;;5224980;22;20023;-76
2023/04/09 10:34:59;;;;;;;2.35;0.50;;;23.30;49.40;;;;;;5193524;22;20012;-77
2023/04/09 10:37:34;;;;;;;1.95;1.20;;;23.40;49.50;;;;;;5201445;22;20463;-78
2023/04/09 10:39:57;;;;;;;3.70;0.85;;;23.30;49.80;;;;;;5200918;22;20094;-75
2023/04/09 10:42:23;;;;;;;5.43;1.30;;;23.30;49.60;;;;;;5219945;22;20026;-76
2023/04/09 10:44:46;;;;;;;5.57;1.25;;;23.30;49.70;;;;;;5220793;22;20030;-76
2023/04/09 10:47:32;;;;;;;5.22;0.60;;;23.30;49.90;;;;;;5191718;22;20015;-78
2023/04/09 10:49:55;;;;;;;20.67;1.77;;;23.30;50.00;;;;;;5219666;22;20050;-74
2023/04/09 10:52:30;;;;;;;4.05;0.90;;;23.20;50.10;;;;;;5219847;22;20011;-76
2023/04/09 10:54:52;;;;;;;1.38;0.73;;;23.20;50.10;;;;;;5190086;22;20407;-77
2023/04/09 10:57:23;;;;;;;3.25;0.75;;;23.20;50.20;;;;;;5220205;22;20022;-80
2023/04/09 10:59:53;;;;;;;3.75;0.60;;;23.20;50.30;;;;;;5216169;22;20108;-77
2023/04/09 11:02:31;;;;;;;3.25;0.90;;;23.20;50.40;;;;;;5194606;22;20091;-75
2023/04/09 11:05:11;;;;;;;9.10;1.02;;;23.20;50.50;;;;;;5194952;22;20053;-75
2023/04/09 11:07:42;;;;;;;6.60;1.45;;;23.10;50.50;;;;;;5164022;22;20051;-77
2023/04/09 11:10:08;;;;;;;5.10;1.05;;;23.10;50.50;;;;;;5194037;22;20012;-78
2023/04/09 11:12:30;;;;;;;4.13;0.70;;;23.10;50.50;;;;;;5193851;22;20012;-76
2023/04/09 11:14:53;;;;;;;2.92;0.65;;;23.10;50.50;;;;;;5190342;22;20351;-74
2023/04/09 11:17:15;;;;;;;2.03;0.82;;;23.00;50.50;;;;;;5196177;22;20027;-76
2023/04/09 11:20:01;;;;;;;6.05;1.05;;;23.00;50.50;;;;;;5196754;22;20821;-75
2023/04/09 11:22:27;;;;;;;2.95;0.75;;;23.00;50.60;;;;;;5169308;22;20016;-76
2023/04/09 11:24:53;;;;;;;2.45;0.63;;;23.00;50.50;;;;;;5196193;22;20059;-73
2023/04/09 11:27:46;;;;;;;0.93;0.40;;;23.00;50.50;;;;;;5163062;22;20023;-78
2023/04/09 11:30:07;;;;;;;0.93;0.57;;;23.00;50.50;;;;;;5160813;23;20088;-75
2023/04/09 12:13:15;;;;;;;1.65;0.82;;;22.80;49.50;;;;;;5189839;22;20023;-51
2023/04/09 12:15:42;;;;;;;0.95;0.77;;;22.80;48.20;;;;;;5180014;22;20470;-46
2023/04/09 12:18:08;;;;;;;4.13;1.00;;;22.80;48.00;;;;;;5158353;22;20407;-48
2023/04/09 12:20:38;;;;;;;29.88;1.52;;;22.70;47.70;;;;;;5190305;22;20399;-47
2023/04/09 12:23:02;;;;;;;5.35;0.98;;;22.60;47.80;;;;;;5189696;22;20019;-51
2023/04/09 12:25:25;;;;;;;7.72;1.08;;;22.60;48.40;;;;;;5184162;22;20387;-49
2023/04/09 12:27:47;;;;;;;10.30;2.10;;;22.60;48.70;;;;;;5188467;22;20496;-49
2023/04/09 12:30:10;;;;;;;14.57;2.08;;;22.60;49.20;;;;;;5162946;22;20402;-50
2023/04/09 12:32:32;;;;;;;11.80;1.80;;;22.50;49.40;;;;;;5192215;22;20406;-51
2023/04/09 12:34:55;;;;;;;13.00;1.60;;;22.50;49.40;;;;;;5193178;22;20375;-49
2023/04/09 12:37:17;;;;;;;3.72;1.10;;;22.50;49.60;;;;;;5193014;22;20019;-52
2023/04/09 12:39:40;;;;;;;4.38;0.90;;;22.50;49.70;;;;;;5191712;22;20016;-50
2023/04/09 12:42:03;;;;;;;3.13;1.20;;;22.40;49.60;;;;;;5191269;22;20103;-52
2023/04/09 12:44:26;;;;;;;6.78;1.38;;;22.40;49.80;;;;;;5190382;22;20321;-53
2023/04/09 12:46:48;;;;;;;2.72;0.65;;;22.40;49.90;;;;;;5191203;22;20019;-54
2023/04/09 12:49:11;;;;;;;1.02;0.50;;;22.40;50.00;;;;;;5190984;22;20091;-50
2023/04/09 12:51:34;;;;;;;3.17;0.82;;;22.40;50.00;;;;;;5191421;22;20390;-55
2023/04/09 12:53:56;;;;;;;5.05;0.90;;;22.40;49.60;;;;;;5193508;22;20020;-50
2023/04/09 12:56:19;;;;;;;2.25;0.80;;;22.40;49.90;;;;;;5162533;22;20610;-52
2023/04/09 12:58:41;;;;;;;3.10;1.45;;;22.30;49.90;;;;;;5191683;22;20513;-51
2023/04/09 13:01:05;;;;;;;5.10;0.85;;;22.30;49.70;;;;;;5191192;22;20099;-51
2023/04/09 13:03:28;;;;;;;3.33;0.70;;;22.30;49.90;;;;;;5176875;22;20069;-54
2023/04/09 13:05:51;;;;;;;4.50;1.33;;;22.30;49.90;;;;;;5169107;23;20502;-52
2023/04/09 13:08:14;;;;;;;4.07;0.70;;;22.30;50.10;;;;;;5169139;23;20075;-48
2023/04/09 13:10:36;;;;;;;1.98;0.82;;;22.30;50.00;;;;;;5168931;23;20154;-49
2023/04/09 13:12:59;;;;;;;1.92;0.60;;;22.20;50.10;;;;;;5185761;22;20088;-51
2023/04/09 13:15:21;;;;;;;4.20;1.00;;;22.20;50.10;;;;;;5193903;22;20069;-47
2023/04/09 13:17:44;;;;;;;1.67;0.60;;;22.20;49.90;;;;;;5194640;22;20019;-51
2023/04/09 13:20:07;;;;;;;1.10;0.60;;;22.10;50.00;;;;;;5161404;22;20103;-53
2023/04/09 13:22:29;;;;;;;2.83;0.63;;;22.20;50.00;;;;;;5192491;22;20019;-50
2023/04/09 13:24:52;;;;;;;3.22;0.70;;;22.10;50.10;;;;;;5164581;22;20570;-46
2023/04/09 13:27:15;;;;;;;1.25;0.60;;;22.10;50.40;;;;;;5194614;22;20565;-50
2023/04/09 13:29:38;;;;;;;0.47;0.47;;;22.10;50.20;;;;;;5195355;22;20019;-53
2023/04/09 13:32:05;;;;;;;3.30;0.70;;;22.10;50.20;;;;;;5193834;22;20007;-53
2023/04/09 13:34:28;;;;;;;1.13;0.57;;;22.10;50.50;;;;;;5163388;22;20020;-49
2023/04/09 13:36:50;;;;;;;7.20;1.23;;;22.00;50.20;;;;;;5194934;22;20014;-48
2023/04/09 13:39:13;;;;;;;1.98;0.88;;;22.00;50.30;;;;;;5195868;22;20482;-47
2023/04/09 13:41:35;;;;;;;0.85;0.60;;;22.00;50.60;;;;;;5192655;22;20011;-49
2023/04/09 13:43:58;;;;;;;2.28;0.60;;;22.00;50.40;;;;;;5195906;22;20073;-50
2023/04/09 13:46:20;;;;;;;1.52;0.52;;;22.00;50.30;;;;;;5194512;22;20024;-52
2023/04/09 13:48:43;;;;;;;5.82;0.82;;;22.00;50.70;;;;;;5196021;22;20008;-53
2023/04/09 13:51:06;;;;;;;2.30;0.52;;;21.90;50.50;;;;;;5195484;22;20042;-50
2023/04/09 13:53:28;;;;;;;2.78;0.60;;;21.90;50.80;;;;;;5194466;22;20016;-55
2023/04/09 13:55:51;;;;;;;2.25;0.80;;;21.90;51.00;;;;;;5195545;22;20501;-55
2023/04/09 13:58:14;;;;;;;5.60;1.15;;;21.90;51.00;;;;;;5155333;22;20058;-54
2023/04/09 14:00:37;;;;;;;3.90;1.02;;;21.90;50.90;;;;;;5185590;22;20017;-56
2023/04/09 14:02:59;;;;;;;1.48;0.80;;;21.90;51.10;;;;;;5194221;22;20099;-58
2023/04/09 14:05:22;;;;;;;5.57;1.10;;;21.90;51.30;;;;;;5197945;22;20030;-53
2023/04/09 14:07:44;;;;;;;2.90;0.68;;;21.80;51.30;;;;;;5195372;22;20471;-57
2023/04/09 14:10:07;;;;;;;3.17;0.90;;;21.80;51.30;;;;;;5197397;22;20522;-55
2023/04/09 14:12:30;;;;;;;3.43;0.70;;;21.80;51.70;;;;;;5196067;22;20123;-57
2023/04/09 14:14:52;;;;;;;0.57;0.40;;;21.80;51.30;;;;;;5194566;22;20390;-50
2023/04/09 14:17:15;;;;;;;1.20;0.50;;;21.70;51.40;;;;;;5194656;22;20008;-54
2023/04/09 14:19:38;;;;;;;3.22;0.70;;;21.70;51.40;;;;;;5193512;22;20020;-53
2023/04/09 14:22:00;;;;;;;1.25;0.60;;;21.70;51.50;;;;;;5195836;22;20008;-55
2023/04/09 14:24:23;;;;;;;1.10;0.50;;;21.70;51.50;;;;;;5195935;22;20390;-59
2023/04/09 14:26:45;;;;;;;1.27;0.50;;;21.60;51.30;;;;;;5195376;22;20386;-55
2023/04/09 14:29:08;;;;;;;1.77;0.70;;;21.60;51.40;;;;;;5194121;22;20529;-53
2023/04/09 14:31:30;;;;;;;2.63;0.88;;;21.60;51.60;;;;;;5194205;22;20012;-59
2023/04/09 14:33:52;;;;;;;2.63;0.73;;;21.60;51.40;;;;;;5195284;22;20493;-59
2023/04/09 14:36:15;;;;;;;2.70;0.70;;;21.60;51.60;;;;;;5196204;22;20525;-59
2023/04/09 14:38:38;;;;;;;2.55;0.47;;;21.60;51.90;;;;;;5163759;22;20023;-60
2023/04/09 14:41:00;;;;;;;17.60;1.33;;;21.50;51.70;;;;;;5195483;22;20062;-50
2023/04/09 14:43:22;;;;;;;3.03;0.50;;;21.50;51.70;;;;;;5193169;22;20020;-49
2023/04/09 14:45:45;;;;;;;4.22;0.60;;;21.50;51.70;;;;;;5194350;22;20270;-50
2023/04/09 14:48:08;;;;;;;3.13;0.93;;;21.50;51.40;;;;;;5185017;22;20133;-54
2023/04/09 14:50:32;;;;;;;1.55;0.82;;;21.50;51.70;;;;;;5164768;22;20428;-55
2023/04/09 14:52:55;;;;;;;0.68;0.50;;;21.40;51.40;;;;;;5184770;22;20424;-57
2023/04/09 14:55:17;;;;;;;3.00;0.77;;;21.40;51.80;;;;;;5194924;22;20423;-59
2023/04/09 14:57:40;;;;;;;3.97;0.85;;;21.40;51.70;;;;;;5192595;22;20070;-49
2023/04/09 15:00:03;;;;;;;2.20;0.82;;;21.40;51.70;;;;;;5194540;22;20019;-58
2023/04/09 15:02:25;;;;;;;1.98;0.63;;;21.40;51.70;;;;;;5193224;22;20011;-57
2023/04/09 15:04:48;;;;;;;0.50;0.50;;;21.40;51.90;;;;;;5191598;22;20708;-50
2023/04/09 15:07:11;;;;;;;3.95;0.60;;;21.30;51.80;;;;;;5191448;22;20086;-50
2023/04/09 15:09:33;;;;;;;1.40;0.40;;;21.30;51.90;;;;;;5195241;22;20015;-56
2023/04/09 15:11:55;;;;;;;0.85;0.60;;;21.30;51.70;;;;;;5194369;22;20037;-59
2023/04/09 15:14:19;;;;;;;3.70;1.00;;;21.30;51.80;;;;;;5184559;22;20012;-58
2023/04/09 15:16:41;;;;;;;2.42;0.77;;;21.30;52.10;;;;;;5193665;22;20026;-59
2023/04/09 15:19:04;;;;;;;1.17;0.40;;;21.20;52.20;;;;;;5195823;22;20016;-59
2023/04/09 15:21:26;;;;;;;2.85;0.90;;;21.20;52.10;;;;;;5195452;22;20012;-59
2023/04/09 15:23:52;;;;;;;1.77;0.73;;;21.20;52.20;;;;;;5194298;22;20015;-60
2023/04/09 15:26:14;;;;;;;1.80;0.82;;;21.10;52.20;;;;;;5196512;22;20054;-59
2023/04/09 15:28:37;;;;;;;1.60;0.70;;;21.10;52.30;;;;;;5193660;22;20019;-59
2023/04/09 15:30:59;;;;;;;1.27;0.52;;;21.10;52.30;;;;;;5192768;22;20083;-57
2023/04/09 15:33:22;;;;;;;2.03;0.80;;;21.10;52.50;;;;;;5162685;22;20108;-58
2023/04/09 15:35:44;;;;;;;3.05;0.70;;;21.00;52.50;;;;;;5195147;22;20014;-54
2023/04/09 15:38:06;;;;;;;1.10;0.50;;;21.00;52.60;;;;;;5193308;22;20020;-53
2023/04/09 15:40:30;;;;;;;2.13;0.75;;;21.00;52.20;;;;;;5193983;22;20278;-60
2023/04/09 15:42:53;;;;;;;1.25;0.60;;;21.00;52.40;;;;;;5187283;22;20011;-58
2023/04/09 15:45:16;;;;;;;5.95;1.20;;;21.00;52.80;;;;;;5193148;22;20382;-60
2023/04/09 15:47:39;;;;;;;1.27;0.60;;;20.90;52.50;;;;;;5186379;22;20018;-61
2023/04/09 15:50:01;;;;;;;5.88;0.52;;;20.90;52.60;;;;;;5193889;22;20275;-60
2023/04/09 15:52:24;;;;;;;4.57;1.30;;;20.90;52.60;;;;;;5191956;22;20352;-57
2023/04/09 15:54:47;;;;;;;4.33;0.70;;;20.90;52.50;;;;;;5193320;22;20389;-54
2023/04/09 15:57:09;;;;;;;3.17;0.68;;;20.90;52.40;;;;;;5194475;22;20178;-52
2023/04/09 15:59:32;;;;;;;3.67;0.70;;;20.90;52.50;;;;;;5192902;22;20019;-52
2023/04/09 16:01:54;;;;;;;3.35;0.80;;;20.90;52.50;;;;;;5160086;22;20016;-52
2023/04/09 16:04:17;;;;;;;1.48;0.40;;;20.90;52.50;;;;;;5186716;22;20015;-49
2023/04/09 16:06:39;;;;;;;0.77;0.68;;;20.90;52.70;;;;;;5194589;22;20038;-51
2023/04/09 16:09:02;;;;;;;1.88;0.55;;;20.80;52.50;;;;;;5192693;22;20015;-51
2023/04/09 16:11:24;;;;;;;0.85;0.25;;;20.80;52.60;;;;;;5161609;22;20357;-49
2023/04/09 16:13:47;;;;;;;1.15;0.55;;;20.80;52.60;;;;;;5191302;22;20279;-49
2023/04/09 16:16:09;;;;;;;3.20;0.98;;;20.80;52.90;;;;;;5194243;22;20037;-49
2023/04/09 16:18:32;;;;;;;2.10;0.50;;;20.80;52.70;;;;;;5195161;22;20019;-52
2023/04/09 16:20:56;;;;;;;1.45;0.75;;;20.70;52.80;;;;;;5194967;22;20011;-47
2023/04/09 16:23:18;;;;;;;1.17;0.70;;;20.70;52.70;;;;;;5195114;22;20098;-51
2023/04/09 16:25:40;;;;;;;0.52;0.45;;;20.70;52.50;;;;;;5194535;22;20025;-50
2023/04/09 16:28:03;;;;;;;0.73;0.55;;;20.70;52.50;;;;;;5195146;22;20011;-52